AFR594 LFPG-GQNO
Flight info
| Callsign | AFR594 |
|---|---|
| Flight time | N/A |
| Altitude | 41000 |
| Route | AGOPA6L AGOPA DCT ARKIP DCT ARMAL DCT ARTAX DCT BEBIX DCT LMG DCT UVELI DCT OSMOB DCT ARVID DCT PPN DCT NOLSA DCT ALEPO DCT VASUM DCT BANEV DCT BAN DCT PINAR DCT CJN/N0479F410 L27 BLN DCT MGA DCT PIMOS DCT GALTO DCT SOLNA L660 LAY Y601 GUPEL GUPEL1V |
| Aircraft | A359/H-SDE2E3GHIJ3J4J5LM1ORWXY/LB1D1 |
Departure
| Time | N/A |
|---|---|
| Airport | Charles de Gaulle International Airport (LFPG) |
Arrival
| Time | 2026-04-26 00:43 |
|---|---|
| Airport | Nouakchott–Oumtounsy International Airport (GQNO) |
| Time | Latitude | Longitude | Altitude | Speed | Heading |
|---|---|---|---|---|---|
| 2026-04-26 00:17 | 20.24675 | -15.34630 | 40872 ft | 450 kts | 204° |
| 2026-04-26 00:17 | 20.21670 | -15.35567 | 40879 ft | 450 kts | 204° |
| 2026-04-26 00:18 | 20.15655 | -15.37442 | 40872 ft | 450 kts | 204° |
| 2026-04-26 00:18 | 20.09647 | -15.39311 | 40779 ft | 448 kts | 204° |
| 2026-04-26 00:18 | 20.06673 | -15.40233 | 40568 ft | 441 kts | 204° |
| 2026-04-26 00:19 | 20.03728 | -15.41149 | 39790 ft | 443 kts | 204° |
| 2026-04-26 00:19 | 20.00772 | -15.42073 | 38907 ft | 450 kts | 205° |
| 2026-04-26 00:19 | 19.97753 | -15.43015 | 38063 ft | 454 kts | 205° |
| 2026-04-26 00:19 | 19.94722 | -15.43955 | 37355 ft | 453 kts | 205° |
| 2026-04-26 00:20 | 19.91702 | -15.44891 | 36665 ft | 452 kts | 205° |
| 2026-04-26 00:20 | 19.88675 | -15.45829 | 35995 ft | 452 kts | 205° |
| 2026-04-26 00:20 | 19.85653 | -15.46767 | 35291 ft | 453 kts | 205° |
| 2026-04-26 00:20 | 19.82619 | -15.47708 | 34576 ft | 454 kts | 205° |
| 2026-04-26 00:21 | 19.79598 | -15.48647 | 33767 ft | 458 kts | 205° |
| 2026-04-26 00:21 | 19.76533 | -15.49599 | 32829 ft | 461 kts | 205° |
| 2026-04-26 00:21 | 19.73434 | -15.50559 | 31989 ft | 464 kts | 204° |
| 2026-04-26 00:21 | 19.70321 | -15.51524 | 31108 ft | 468 kts | 204° |
| 2026-04-26 00:22 | 19.67181 | -15.52496 | 30308 ft | 470 kts | 204° |
| 2026-04-26 00:22 | 19.64051 | -15.53461 | 29671 ft | 467 kts | 204° |
| 2026-04-26 00:22 | 19.60941 | -15.54420 | 29009 ft | 463 kts | 203° |
| 2026-04-26 00:22 | 19.57861 | -15.55370 | 28391 ft | 459 kts | 203° |
| 2026-04-26 00:23 | 19.54801 | -15.56314 | 27766 ft | 455 kts | 202° |
| 2026-04-26 00:23 | 19.51805 | -15.57239 | 27156 ft | 451 kts | 202° |
| 2026-04-26 00:23 | 19.48793 | -15.58169 | 26560 ft | 448 kts | 202° |
| 2026-04-26 00:23 | 19.45813 | -15.59090 | 25936 ft | 444 kts | 202° |
| 2026-04-26 00:24 | 19.42859 | -15.60001 | 25333 ft | 441 kts | 201° |
| 2026-04-26 00:24 | 19.39927 | -15.60906 | 24745 ft | 437 kts | 201° |
| 2026-04-26 00:24 | 19.37010 | -15.61806 | 24142 ft | 434 kts | 200° |
| 2026-04-26 00:24 | 19.34121 | -15.62697 | 23544 ft | 431 kts | 200° |
| 2026-04-26 00:25 | 19.31244 | -15.63583 | 22863 ft | 428 kts | 200° |
| 2026-04-26 00:25 | 19.28394 | -15.64460 | 22238 ft | 423 kts | 200° |
| 2026-04-26 00:25 | 19.25612 | -15.65316 | 21639 ft | 418 kts | 200° |
| 2026-04-26 00:25 | 19.22832 | -15.66171 | 21035 ft | 414 kts | 200° |
| 2026-04-26 00:26 | 19.20080 | -15.67018 | 20429 ft | 410 kts | 200° |
| 2026-04-26 00:26 | 19.17354 | -15.67856 | 19827 ft | 406 kts | 200° |
| 2026-04-26 00:26 | 19.14650 | -15.68688 | 19218 ft | 403 kts | 200° |
| 2026-04-26 00:26 | 19.11959 | -15.69515 | 18609 ft | 400 kts | 200° |
| 2026-04-26 00:27 | 19.09292 | -15.70335 | 17965 ft | 397 kts | 200° |
| 2026-04-26 00:27 | 19.06649 | -15.71147 | 17313 ft | 394 kts | 200° |
| 2026-04-26 00:27 | 19.04031 | -15.71950 | 16695 ft | 389 kts | 199° |
| 2026-04-26 00:27 | 19.01446 | -15.72744 | 16098 ft | 385 kts | 199° |
| 2026-04-26 00:28 | 18.98880 | -15.73531 | 15500 ft | 381 kts | 199° |
| 2026-04-26 00:28 | 18.96383 | -15.74298 | 14900 ft | 377 kts | 199° |
| 2026-04-26 00:28 | 18.93871 | -15.75068 | 14300 ft | 373 kts | 199° |
| 2026-04-26 00:28 | 18.91392 | -15.75828 | 13710 ft | 370 kts | 198° |
| 2026-04-26 00:29 | 18.88930 | -15.76583 | 13067 ft | 366 kts | 198° |
| 2026-04-26 00:29 | 18.86498 | -15.77327 | 12475 ft | 361 kts | 199° |
| 2026-04-26 00:29 | 18.84099 | -15.78061 | 11885 ft | 355 kts | 199° |
| 2026-04-26 00:29 | 18.81772 | -15.78772 | 11476 ft | 346 kts | 199° |
| 2026-04-26 00:30 | 18.79512 | -15.79461 | 11343 ft | 329 kts | 199° |
| 2026-04-26 00:30 | 18.77369 | -15.80114 | 11205 ft | 313 kts | 200° |
| 2026-04-26 00:30 | 18.75326 | -15.80738 | 11077 ft | 298 kts | 200° |
| 2026-04-26 00:30 | 18.73383 | -15.81331 | 10953 ft | 284 kts | 200° |
| 2026-04-26 00:31 | 18.71523 | -15.81899 | 10822 ft | 271 kts | 200° |
| 2026-04-26 00:31 | 18.69745 | -15.82443 | 10685 ft | 261 kts | 201° |
| 2026-04-26 00:31 | 18.68017 | -15.82973 | 10404 ft | 257 kts | 201° |
| 2026-04-26 00:31 | 18.66327 | -15.83492 | 10149 ft | 255 kts | 201° |
| 2026-04-26 00:32 | 18.64623 | -15.84016 | 9891 ft | 255 kts | 201° |
| 2026-04-26 00:32 | 18.62898 | -15.84546 | 9646 ft | 265 kts | 201° |
| 2026-04-26 00:32 | 18.59284 | -15.85655 | 9076 ft | 272 kts | 201° |
| 2026-04-26 00:33 | 18.57463 | -15.86210 | 8768 ft | 273 kts | 201° |
| 2026-04-26 00:33 | 18.55630 | -15.86769 | 8458 ft | 273 kts | 201° |
| 2026-04-26 00:33 | 18.53809 | -15.87322 | 7792 ft | 271 kts | 201° |
| 2026-04-26 00:33 | 18.52003 | -15.87873 | 7288 ft | 271 kts | 201° |
| 2026-04-26 00:34 | 18.50207 | -15.88421 | 6943 ft | 272 kts | 201° |
| 2026-04-26 00:34 | 18.48387 | -15.88975 | 6537 ft | 271 kts | 201° |
| 2026-04-26 00:34 | 18.46572 | -15.89529 | 6195 ft | 271 kts | 201° |
| 2026-04-26 00:34 | 18.44760 | -15.90081 | 5857 ft | 271 kts | 200° |
| 2026-04-26 00:35 | 18.42943 | -15.90637 | 5522 ft | 272 kts | 200° |
| 2026-04-26 00:35 | 18.41112 | -15.91196 | 5202 ft | 273 kts | 199° |
| 2026-04-26 00:35 | 18.39288 | -15.91751 | 4907 ft | 272 kts | 198° |
| 2026-04-26 00:35 | 18.37526 | -15.92286 | 4768 ft | 259 kts | 198° |
| 2026-04-26 00:36 | 18.35834 | -15.92799 | 4639 ft | 247 kts | 198° |
| 2026-04-26 00:36 | 18.34220 | -15.93289 | 4501 ft | 235 kts | 198° |
| 2026-04-26 00:36 | 18.32689 | -15.93754 | 4385 ft | 224 kts | 198° |
| 2026-04-26 00:36 | 18.31204 | -15.94206 | 4254 ft | 220 kts | 198° |
| 2026-04-26 00:37 | 18.29727 | -15.94613 | 4045 ft | 220 kts | 192° |
| 2026-04-26 00:37 | 18.28197 | -15.94514 | 3692 ft | 225 kts | 160° |
| 2026-04-26 00:37 | 18.26979 | -15.93543 | 3459 ft | 217 kts | 127° |
| 2026-04-26 00:37 | 18.26139 | -15.92293 | 3335 ft | 208 kts | 122° |
| 2026-04-26 00:38 | 18.25351 | -15.91031 | 3220 ft | 205 kts | 122° |
| 2026-04-26 00:38 | 18.24564 | -15.89785 | 3098 ft | 203 kts | 122° |
| 2026-04-26 00:38 | 18.23630 | -15.88681 | 2894 ft | 203 kts | 141° |
| 2026-04-26 00:38 | 18.22315 | -15.88126 | 2705 ft | 207 kts | 174° |
| 2026-04-26 00:39 | 18.20920 | -15.88373 | 2540 ft | 206 kts | 206° |
| 2026-04-26 00:39 | 18.19862 | -15.89311 | 2395 ft | 193 kts | 238° |
| 2026-04-26 00:39 | 18.19517 | -15.90565 | 2131 ft | 174 kts | 284° |
| 2026-04-26 00:39 | 18.20149 | -15.91498 | 2053 ft | 155 kts | 334° |
| 2026-04-26 00:40 | 18.21156 | -15.91784 | 1780 ft | 147 kts | 347° |
| 2026-04-26 00:40 | 18.22127 | -15.92023 | 1528 ft | 139 kts | 347° |
| 2026-04-26 00:40 | 18.23020 | -15.92294 | 1326 ft | 129 kts | 341° |
| 2026-04-26 00:40 | 18.23817 | -15.92670 | 1170 ft | 124 kts | 333° |
| 2026-04-26 00:41 | 18.24583 | -15.93104 | 1006 ft | 125 kts | 332° |
| 2026-04-26 00:41 | 18.25350 | -15.93544 | 829 ft | 126 kts | 331° |
| 2026-04-26 00:41 | 18.26104 | -15.93988 | 664 ft | 125 kts | 330° |
| 2026-04-26 00:41 | 18.26849 | -15.94440 | 502 ft | 123 kts | 330° |
| 2026-04-26 00:42 | 18.27595 | -15.94887 | 370 ft | 125 kts | 329° |
| 2026-04-26 00:42 | 18.28336 | -15.95346 | 177 ft | 123 kts | 329° |
| 2026-04-26 00:42 | 18.29074 | -15.95795 | 39 ft | 121 kts | 330° |
| 2026-04-26 00:42 | 18.29757 | -15.96205 | 14 ft | 99 kts | 330° |
| 2026-04-26 00:43 | 18.30268 | -15.96516 | 20 ft | 72 kts | 330° |
| 2026-04-26 00:43 | 18.30624 | -15.96733 | 17 ft | 47 kts | 330° |
| 2026-04-26 00:43 | 18.30832 | -15.96860 | 17 ft | 21 kts | 329° |
| 2026-04-26 00:43 | 18.30919 | -15.96916 | 18 ft | 14 kts | 328° |
| 2026-04-26 00:44 | 18.31005 | -15.96922 | 21 ft | 13 kts | 43° |
| 2026-04-26 00:44 | 18.31054 | -15.96822 | 19 ft | 18 kts | 84° |
| 2026-04-26 00:44 | 18.30989 | -15.96751 | 15 ft | 16 kts | 153° |
| 2026-04-26 00:44 | 18.30892 | -15.96695 | 15 ft | 16 kts | 150° |
| 2026-04-26 00:45 | 18.30848 | -15.96639 | 15 ft | 4 kts | 92° |
| 2026-04-26 00:45 | 18.30853 | -15.96608 | 15 ft | 9 kts | 80° |
| 2026-04-26 00:45 | 18.30807 | -15.96511 | 13 ft | 12 kts | 98° |
| 2026-04-26 00:45 | 18.30834 | -15.96443 | 13 ft | 10 kts | 59° |
| 2026-04-26 00:46 | 18.30840 | -15.96431 | 13 ft | 0 kts | 59° |
| 2026-04-26 00:46 | 18.30842 | -15.96428 | 13 ft | 0 kts | 59° |